Pylesville, Maryland
Current Conditions -  °F | °C
As of 5:45 PM on Friday 28 Nov 2014 (Local Time) from KMTN Reporting Station
Scattered Clouds Scattered Clouds  
Wind Chill: 25°   Ceiling: Unl
Heat Index: 32°   Visibility: 10mi
Dew Point: 19°   Wind: 8mph
Humidity: 60%   Direction: 270°W
Pressure: 30.29"   Gusts: NA
Location:  39.7°N, 76.43°W
Report Text: KMTN 282245Z 27007KT 10SM SCT120 SCT200 00/M07 A3029
Loading
Personal Weather Stations






























Interactive Weather Map New forecast layout! Learn more

10-Day Weather Forecast

Advertisements
Track Severe Weather on mobile